»·PEaware :: RNGR803 KNGP-KNGP

RNGR803 :: KNGP-KNGP

FLIGHT INFORMATION

Flight Status: Arrived
Operator: Unknown
More flights by this operator :: More flights under this callsign
Pilot: USN Avenger (31125)
Aircraft: BEECH AIRCRAFT T-6A TEXAN
(TEX2)
More flights by this aircraft type
Origin: KNGP Corpus Christi NAS/Truax
United States
Destination: KNGP Corpus Christi NAS/Truax
United States
More flights between these airports :: More routes between these airports
Route: KING 4 KNGT
File this flight plan on PilotEdge
Remarks:
Altitude:
(Current/Filed)
14,500ft
Speed:
(Current/Filed)
240kts
Departed: 16-Nov-23 10:19 AM
Arrived: 16-Nov-23 11:05 AM
Distance/Time
Traveled:
0nm/0:45
Distance/Time
To Go:
Arrived

Flight Plot

Page will automatically refresh every two minutes.

Flight plan parsing failed; only flown route is shown


Map Options




Map Legend


Flown Route
Filed Route
Departure Airport
Arrival Airport
Navaid (VOR, NDB)
Fix

Horizontal Profiles

Position Reports

Time Latitude Longitude Heading Altitude Ground
Speed
16-Nov-23 10:14 27.689272 -97.282258 0 22ft 0kts
16-Nov-23 10:15 27.689589 -97.282611 269 22ft 9kts
16-Nov-23 10:16 27.687707 -97.281413 226 22ft 4kts
16-Nov-23 10:17 27.687548 -97.281595 225 22ft 0kts
16-Nov-23 10:18 27.687241 -97.282678 317 22ft 0kts
16-Nov-23 10:19 27.707367 -97.303928 318 925ft 158kts
16-Nov-23 10:20 27.753448 -97.305647 19 3244ft 179kts
16-Nov-23 10:21 27.801779 -97.287088 15 5609ft 194kts
16-Nov-23 10:22 27.864496 -97.265840 15 5697ft 257kts
16-Nov-23 10:23 27.926988 -97.252780 2 8367ft 197kts
16-Nov-23 10:24 27.982701 -97.248918 12 10609ft 206kts
16-Nov-23 10:25 28.039770 -97.237830 7 12752ft 207kts
16-Nov-23 10:26 28.097924 -97.224089 15 14482ft 220kts
16-Nov-23 10:27 28.156189 -97.249488 313 14655ft 270kts
16-Nov-23 10:28 28.205345 -97.317963 306 13707ft 285kts
16-Nov-23 10:29 28.235605 -97.375674 109 12856ft 254kts
16-Nov-23 10:30 28.180954 -97.369693 229 12142ft 289kts
16-Nov-23 10:31 28.186319 -97.455339 312 7641ft 285kts
16-Nov-23 10:32 28.237529 -97.514068 315 5310ft 239kts
16-Nov-23 10:33 28.280293 -97.566503 307 4345ft 225kts
16-Nov-23 10:33 28.313590 -97.614443 320 4771ft 244kts
16-Nov-23 10:35 28.386172 -97.657546 347 4570ft 262kts
16-Nov-23 10:36 28.456539 -97.655645 12 4505ft 249kts
16-Nov-23 10:37 28.521455 -97.630144 30 4556ft 237kts
16-Nov-23 10:38 28.520904 -97.597806 356 2183ft 178kts
16-Nov-23 10:39 28.573387 -97.613355 346 1382ft 194kts
16-Nov-23 10:39 28.616906 -97.621841 343 1423ft 181kts
16-Nov-23 10:41 28.591119 -97.628353 175 1235ft 134kts
16-Nov-23 10:41 28.588476 -97.615023 340 671ft 107kts
16-Nov-23 10:42 28.618535 -97.621465 349 645ft 128kts
16-Nov-23 10:43 28.657228 -97.609281 88 2006ft 193kts
16-Nov-23 10:45 28.600075 -97.558441 150 2656ft 253kts
16-Nov-23 10:46 28.538994 -97.518374 151 2681ft 255kts
16-Nov-23 10:46 28.487044 -97.485511 150 2624ft 257kts
16-Nov-23 10:47 28.424499 -97.446540 150 2612ft 256kts
16-Nov-23 10:49 28.351262 -97.401918 152 2638ft 255kts
16-Nov-23 10:50 28.289007 -97.363036 150 2631ft 256kts
16-Nov-23 10:50 28.236977 -97.330149 150 2683ft 253kts
16-Nov-23 10:51 28.175568 -97.289507 149 2616ft 257kts
16-Nov-23 10:53 28.103576 -97.242112 149 2608ft 256kts
16-Nov-23 10:53 28.052724 -97.208081 150 2645ft 256kts
16-Nov-23 10:54 27.990401 -97.167457 150 2130ft 258kts
16-Nov-23 10:55 27.927745 -97.130465 153 1107ft 252kts
16-Nov-23 10:56 27.863770 -97.129206 209 1182ft 243kts
16-Nov-23 10:57 27.800984 -97.160141 200 1086ft 247kts
16-Nov-23 10:58 27.739529 -97.187005 202 1119ft 224kts
16-Nov-23 10:59 27.683848 -97.212926 206 1076ft 212kts
16-Nov-23 11:00 27.674543 -97.264249 309 1129ft 192kts
16-Nov-23 11:01 27.713555 -97.292190 42 1049ft 136kts
16-Nov-23 11:02 27.695269 -97.262017 159 919ft 115kts
16-Nov-23 11:03 27.687511 -97.282911 317 23ft 79kts
16-Nov-23 11:04 27.692969 -97.288074 357 22ft 0kts

Navigation Log

Ident Type
Flight plan parsing failed, navigation log unavailable